Weather at Nampa Municipal Airport

Public forecast

Using degrees Fahrenheit for public forecast. Weather courtesy of forecast.io.

Closest aviation weather report (METAR) to Nampa Municipal Airport

Closest report is Treasure Valley Executive Airport at Caldwell, 6.1 nm (11.3 km) NW.

2022/11/30 05:56 (retrieved 2 hours ago)

KEUL 300556Z AUTO 11009KT 10SM CLR M02/M06 A3006 RMK AO2 SLP200 T10171056 11006 21017 58004 FZRANO

Closest aviation forecast (TAF) to Nampa Municipal Airport

Closest forecast is Treasure Valley Executive Airport at Caldwell, 6.1 nm (11.3 km) NW.

2022/11/30 06:30 Ammendment (retrieved 1 hour ago)

TAF KEUL 300526Z 3006/0106 13012KT P6SM -SN OVC040 FM301000 14015G25KT P6SM OVC050 AMD NOT SKED